createdAt,value
2023-02-02T00:02:11.383Z,4.07
2023-02-02T00:06:14.142Z,4.01
2023-02-02T00:10:17.267Z,3.98
2023-02-02T00:14:21.252Z,4.04
2023-02-02T00:18:23.938Z,4.15
2023-02-02T00:22:26.517Z,4.10
2023-02-02T00:26:29.244Z,3.99
2023-02-02T00:30:33.246Z,3.83
2023-02-02T00:34:35.874Z,3.70
2023-02-02T00:38:38.806Z,3.63
2023-02-02T00:42:41.450Z,3.69
2023-02-02T00:46:45.600Z,3.69
2023-02-02T00:50:48.224Z,3.68
2023-02-02T00:54:50.833Z,3.67
2023-02-02T00:58:53.423Z,3.55
2023-02-02T01:03:04.197Z,3.50
2023-02-02T01:07:07.001Z,3.53
2023-02-02T01:11:10.074Z,3.47
2023-02-02T01:15:13.901Z,3.40
2023-02-02T01:19:18.167Z,3.30
2023-02-02T01:23:20.740Z,3.30
2023-02-02T01:27:23.329Z,3.27
2023-02-02T01:31:26.000Z,3.21
2023-02-02T01:35:30.059Z,3.17
2023-02-02T01:39:34.255Z,3.14
2023-02-02T01:44:04.946Z,3.14
2023-02-02T01:48:07.632Z,3.11
2023-02-02T01:52:13.938Z,3.06
2023-02-02T01:56:28.708Z,2.96
2023-02-02T02:00:31.316Z,3.02
2023-02-02T02:04:34.292Z,2.94
2023-02-02T02:08:41.731Z,3.01
2023-02-02T02:12:44.386Z,3.00
2023-02-02T02:16:57.848Z,2.99
2023-02-02T02:21:50.981Z,2.93
2023-02-02T02:26:28.013Z,2.90
2023-02-02T02:30:58.095Z,2.90
2023-02-02T02:35:10.687Z,2.89
2023-02-02T02:39:18.520Z,2.86
2023-02-02T02:43:28.105Z,2.89
2023-02-02T02:47:32.323Z,2.95
2023-02-02T02:51:48.711Z,2.95
2023-02-02T02:55:58.004Z,2.96
2023-02-02T03:00:11.076Z,2.94
2023-02-02T03:04:16.386Z,2.60
2023-02-02T03:08:25.147Z,2.15
2023-02-02T03:12:27.777Z,1.75
2023-02-02T03:16:30.403Z,1.51
2023-02-02T03:20:33.030Z,1.34
2023-02-02T03:24:36.964Z,1.14
2023-02-02T03:28:39.953Z,1.05
2023-02-02T03:32:43.026Z,0.95
2023-02-02T03:36:45.627Z,0.69
2023-02-02T03:40:49.607Z,0.53
2023-02-02T03:44:52.248Z,0.35
2023-02-02T03:48:54.835Z,0.30
2023-02-02T03:52:57.417Z,0.23
2023-02-02T03:57:01.436Z,0.19
2023-02-02T04:01:05.604Z,0.12
2023-02-02T04:05:08.506Z,0.12
2023-02-02T04:09:11.177Z,0.09
2023-02-02T04:13:15.165Z,0.08
2023-02-02T04:17:17.779Z,-0.02
2023-02-02T04:21:20.375Z,-0.10
2023-02-02T04:25:23.202Z,-0.17
2023-02-02T04:29:27.427Z,-0.22
2023-02-02T04:33:30.176Z,-0.31
2023-02-02T04:37:33.488Z,-0.34
2023-02-02T04:41:36.148Z,-0.35
2023-02-02T04:45:40.591Z,-0.34
2023-02-02T04:49:43.223Z,-0.29
2023-02-02T04:53:45.873Z,-0.33
2023-02-02T04:57:48.468Z,-0.28
2023-02-02T05:01:52.531Z,-0.20
2023-02-02T05:06:02.302Z,-0.14
2023-02-02T05:10:05.144Z,-0.11
2023-02-02T05:14:08.129Z,-0.09
2023-02-02T05:18:12.076Z,-0.06
2023-02-02T05:22:14.680Z,-0.05
2023-02-02T05:26:22.190Z,-0.07
2023-02-02T05:30:24.831Z,-0.07
2023-02-02T05:34:28.804Z,-0.10
2023-02-02T05:38:31.459Z,-0.08
2023-02-02T05:42:34.044Z,-0.18
2023-02-02T05:46:36.665Z,-0.22
2023-02-02T05:50:41.366Z,-0.23
2023-02-02T05:54:44.191Z,-0.25
2023-02-02T05:58:47.370Z,-0.24
2023-02-02T06:02:50.113Z,-0.27
2023-02-02T06:06:54.200Z,-0.29
2023-02-02T06:10:56.803Z,-0.26
2023-02-02T06:14:59.445Z,-0.28
2023-02-02T06:19:02.159Z,-0.24
2023-02-02T06:23:06.528Z,-0.23
2023-02-02T06:27:09.122Z,-0.23
2023-02-02T06:31:13.387Z,-0.21
2023-02-02T06:35:16.235Z,-0.17
2023-02-02T06:39:20.215Z,-0.23
2023-02-02T06:43:22.837Z,-0.28
2023-02-02T06:47:26.906Z,-0.30
2023-02-02T06:51:29.596Z,-0.29
2023-02-02T06:55:33.839Z,-0.31
2023-02-02T06:59:36.501Z,-0.27
2023-02-02T07:03:39.844Z,-0.22
2023-02-02T07:07:42.452Z,-0.23
2023-02-02T07:11:46.420Z,-0.24
2023-02-02T07:15:49.838Z,-0.27
2023-02-02T07:19:52.543Z,-0.25
2023-02-02T07:23:55.165Z,-0.25
2023-02-02T07:27:59.112Z,-0.22
2023-02-02T07:32:01.759Z,-0.28
2023-02-02T07:36:04.877Z,-0.24
2023-02-02T07:40:09.650Z,-0.25
2023-02-02T07:44:16.094Z,-0.22
2023-02-02T07:48:18.878Z,-0.20
2023-02-02T07:52:21.520Z,-0.21
2023-02-02T07:56:26.769Z,-0.18
2023-02-02T08:00:30.771Z,-0.21
2023-02-02T08:04:34.346Z,-0.20
2023-02-02T08:08:36.966Z,-0.19
2023-02-02T08:12:39.630Z,-0.26
2023-02-02T08:16:43.642Z,-0.28
2023-02-02T08:20:46.236Z,-0.37
2023-02-02T08:24:49.273Z,-0.38
2023-02-02T08:28:54.912Z,-0.39
2023-02-02T08:32:59.131Z,-0.38
2023-02-02T08:37:01.742Z,-0.37
2023-02-02T08:41:08.168Z,-0.35
2023-02-02T08:46:04.563Z,-0.33
2023-02-02T08:49:35.606Z,-0.34
2023-02-02T08:53:38.265Z,-0.33
2023-02-02T08:57:40.871Z,-0.33
2023-02-02T09:01:43.501Z,-0.35
2023-02-02T09:05:47.486Z,-0.32
2023-02-02T09:09:50.976Z,-0.39
2023-02-02T09:13:56.815Z,-0.38
2023-02-02T09:17:59.439Z,-0.36
2023-02-02T09:22:03.374Z,-0.40
2023-02-02T09:26:13.834Z,-0.36
2023-02-02T09:30:16.743Z,-0.31
2023-02-02T09:34:19.401Z,-0.29
2023-02-02T09:38:23.363Z,-0.26
2023-02-02T09:42:40.364Z,-0.24
2023-02-02T09:46:54.807Z,-0.22
2023-02-02T09:51:01.289Z,-0.22
2023-02-02T09:55:12.423Z,-0.12
2023-02-02T09:59:23.475Z,-0.05
2023-02-02T10:03:37.595Z,0.01
2023-02-02T10:07:45.692Z,0.06
2023-02-02T10:11:54.304Z,0.03
2023-02-02T10:16:04.194Z,0.05
2023-02-02T10:20:18.974Z,0.07
2023-02-02T10:24:24.605Z,0.14
2023-02-02T10:28:53.879Z,0.16
2023-02-02T10:33:06.111Z,0.16
2023-02-02T10:37:20.271Z,0.11
2023-02-02T10:41:29.070Z,0.18
2023-02-02T10:45:34.426Z,0.21
2023-02-02T10:49:39.511Z,0.26
2023-02-02T10:53:48.028Z,0.30
2023-02-02T10:57:59.549Z,0.30
2023-02-02T11:02:18.963Z,0.33
2023-02-02T11:06:40.657Z,0.29
2023-02-02T11:10:44.713Z,0.32
2023-02-02T11:14:52.193Z,0.22
2023-02-02T11:18:56.256Z,0.17
2023-02-02T11:23:03.776Z,0.19
2023-02-02T11:27:14.214Z,0.22
2023-02-02T11:31:35.034Z,0.29
2023-02-02T11:35:54.539Z,0.22
2023-02-02T11:40:28.601Z,0.18
2023-02-02T11:44:34.109Z,0.16
2023-02-02T11:48:39.233Z,0.23
2023-02-02T11:52:42.472Z,0.17
2023-02-02T11:56:51.251Z,0.28
2023-02-02T12:00:57.120Z,0.32
2023-02-02T12:05:34.750Z,0.34
2023-02-02T12:09:37.400Z,0.37
2023-02-02T12:13:54.983Z,0.41
2023-02-02T12:18:09.136Z,0.43
2023-02-02T12:22:24.547Z,0.38
2023-02-02T12:26:30.050Z,0.51
2023-02-02T12:30:41.018Z,0.54
2023-02-02T12:34:55.091Z,0.48
2023-02-02T12:39:11.199Z,0.45
2023-02-02T12:43:24.515Z,0.49
2023-02-02T12:47:31.257Z,0.52
2023-02-02T12:51:51.014Z,0.54
2023-02-02T12:56:02.279Z,0.57
2023-02-02T13:00:20.931Z,0.63
2023-02-02T13:04:37.357Z,0.67
2023-02-02T13:08:47.544Z,0.65
2023-02-02T13:12:55.237Z,0.62
2023-02-02T13:17:11.242Z,0.66
2023-02-02T13:21:17.621Z,0.75
2023-02-02T13:25:26.334Z,0.91
2023-02-02T13:29:47.688Z,1.13
2023-02-02T13:34:01.924Z,1.87
2023-02-02T13:38:16.919Z,2.58
2023-02-02T13:42:27.759Z,3.14
2023-02-02T13:46:37.621Z,3.28
2023-02-02T13:51:03.812Z,3.31
2023-02-02T13:55:25.741Z,3.33
2023-02-02T13:59:53.055Z,3.42
2023-02-02T14:03:58.351Z,3.44
2023-02-02T14:08:04.487Z,3.42
2023-02-02T14:12:12.294Z,3.42
2023-02-02T14:16:22.733Z,3.33
2023-02-02T14:20:44.439Z,2.58
2023-02-02T14:24:50.054Z,1.64
2023-02-02T14:28:54.252Z,1.23
2023-02-02T14:33:25.409Z,0.92
2023-02-02T14:37:40.429Z,0.96
2023-02-02T14:42:34.899Z,0.91
2023-02-02T14:46:40.462Z,0.77
2023-02-02T14:50:49.287Z,0.73
2023-02-02T14:54:52.971Z,0.77
2023-02-02T14:59:01.188Z,0.72
2023-02-02T15:03:36.906Z,0.62
2023-02-02T15:07:54.452Z,0.64
2023-02-02T15:12:17.117Z,0.58
2023-02-02T15:16:26.274Z,0.54
2023-02-02T15:20:34.241Z,0.51
2023-02-02T15:24:38.640Z,0.48
2023-02-02T15:28:44.430Z,0.42
2023-02-02T15:32:48.635Z,0.31
2023-02-02T15:36:55.071Z,0.37
2023-02-02T15:40:57.897Z,0.31
2023-02-02T15:45:00.568Z,0.17
2023-02-02T15:49:32.939Z,0.07
2023-02-02T15:53:49.406Z,0.02
2023-02-02T15:57:54.278Z,0.00
2023-02-02T16:02:06.236Z,-0.04
2023-02-02T16:06:09.579Z,0.02
2023-02-02T16:10:20.377Z,-0.01
2023-02-02T16:14:23.829Z,0.05
2023-02-02T16:18:26.494Z,0.05
2023-02-02T16:22:30.899Z,0.02
2023-02-02T16:26:36.693Z,0.02
2023-02-02T16:30:40.529Z,0.00
2023-02-02T16:34:47.327Z,0.05
2023-02-02T16:38:52.375Z,0.09
2023-02-02T16:43:07.197Z,0.10
2023-02-02T16:47:33.599Z,0.08
2023-02-02T16:51:36.987Z,0.10
2023-02-02T16:55:50.652Z,0.09
2023-02-02T16:59:57.805Z,0.12
2023-02-02T17:04:02.499Z,0.06
2023-02-02T17:08:07.982Z,0.01
2023-02-02T17:12:34.900Z,0.06
2023-02-02T17:16:38.243Z,1.76
2023-02-02T17:20:43.169Z,1.21
2023-02-02T17:24:48.018Z,0.70
2023-02-02T17:29:02.138Z,0.39
2023-02-02T17:33:05.093Z,0.24
2023-02-02T17:37:09.140Z,0.14
2023-02-02T17:41:14.207Z,0.14
2023-02-02T17:45:20.392Z,0.09
2023-02-02T17:49:23.080Z,-0.01
2023-02-02T17:53:32.670Z,-0.03
2023-02-02T17:57:36.402Z,-0.12
2023-02-02T18:01:41.852Z,-0.11
2023-02-02T18:05:44.710Z,-0.24
2023-02-02T18:09:48.761Z,-0.25
2023-02-02T18:13:51.492Z,-0.17
2023-02-02T18:17:55.118Z,-0.17
2023-02-02T18:21:57.790Z,-0.16
2023-02-02T18:26:13.628Z,-0.11
2023-02-02T18:30:16.775Z,0.34
2023-02-02T18:34:20.062Z,0.79
2023-02-02T18:38:22.727Z,0.77
2023-02-02T18:42:29.886Z,0.34
2023-02-02T18:46:34.399Z,0.05
2023-02-02T18:50:37.067Z,-0.08
2023-02-02T18:54:40.420Z,-0.18
2023-02-02T18:58:45.194Z,-0.24
2023-02-02T19:02:47.905Z,-0.23
2023-02-02T19:07:19.769Z,-0.26
2023-02-02T19:11:25.305Z,-0.26
2023-02-02T19:15:29.293Z,-0.24
2023-02-02T19:19:34.789Z,-0.20
2023-02-02T19:23:38.929Z,-0.19
2023-02-02T19:27:42.059Z,-0.23
2023-02-02T19:31:46.987Z,-0.23
2023-02-02T19:35:53.025Z,-0.23
2023-02-02T19:39:57.214Z,-0.22
2023-02-02T19:44:02.323Z,-0.20
2023-02-02T19:48:18.840Z,-0.23
2023-02-02T19:52:25.696Z,-0.27
2023-02-02T19:56:35.054Z,-0.26
2023-02-02T20:00:39.015Z,-0.27
2023-02-02T20:04:43.363Z,-0.30
2023-02-02T20:08:46.267Z,-0.29
2023-02-02T20:12:49.385Z,-0.24
2023-02-02T20:16:54.464Z,-0.25
2023-02-02T20:20:58.802Z,-0.24
2023-02-02T20:25:05.063Z,-0.25
2023-02-02T20:29:17.887Z,-0.25
2023-02-02T20:33:24.442Z,-0.21
2023-02-02T20:37:30.583Z,-0.26
2023-02-02T20:41:33.424Z,-0.26
2023-02-02T20:45:36.052Z,-0.24
2023-02-02T20:49:39.289Z,-0.21
2023-02-02T20:53:43.255Z,-0.16
2023-02-02T20:57:45.972Z,-0.15
2023-02-02T21:01:50.011Z,-0.13
2023-02-02T21:05:52.640Z,-0.18
2023-02-02T21:09:56.686Z,-0.18
2023-02-02T21:13:59.951Z,-0.16
2023-02-02T21:18:02.653Z,-0.16
2023-02-02T21:22:05.332Z,-0.15
2023-02-02T21:26:09.304Z,-0.15
2023-02-02T21:30:13.949Z,-0.16
2023-02-02T21:34:18.535Z,-0.19
2023-02-02T21:38:21.133Z,-0.19
2023-02-02T21:42:27.204Z,-0.25
2023-02-02T21:46:37.126Z,-0.23
2023-02-02T21:50:42.580Z,-0.28
2023-02-02T21:54:46.354Z,-0.27
2023-02-02T21:58:50.307Z,-0.27
2023-02-02T22:02:54.034Z,-0.21
2023-02-02T22:07:00.632Z,-0.22
2023-02-02T22:11:03.245Z,-0.23
2023-02-02T22:15:17.351Z,-0.23
2023-02-02T22:19:32.366Z,-0.24
2023-02-02T22:23:34.934Z,-0.25
2023-02-02T22:27:42.494Z,-0.29
2023-02-02T22:31:46.555Z,-0.27
2023-02-02T22:35:49.789Z,-0.22
2023-02-02T22:39:52.386Z,-0.21
2023-02-02T22:43:55.007Z,-0.24
2023-02-02T22:47:59.106Z,-0.18
2023-02-02T22:52:01.752Z,-0.17
2023-02-02T22:56:04.807Z,-0.16
2023-02-02T23:00:12.006Z,-0.14
2023-02-02T23:04:16.012Z,-0.15
2023-02-02T23:08:18.618Z,-0.10
2023-02-02T23:12:21.216Z,-0.05
2023-02-02T23:16:23.867Z,-0.03
2023-02-02T23:20:28.334Z,0.02
2023-02-02T23:24:31.133Z,0.12
2023-02-02T23:28:33.815Z,0.25
2023-02-02T23:32:36.782Z,0.42
2023-02-02T23:36:40.822Z,0.48
2023-02-02T23:40:43.402Z,0.51
2023-02-02T23:44:46.027Z,0.72
2023-02-02T23:48:48.858Z,0.98
2023-02-02T23:52:52.908Z,1.13
2023-02-02T23:56:56.126Z,1.34
